sensor_id;sensor_type;location;lat;lon;timestamp;pressure;altitude;pressure_sealevel;temperature;humidity
48364;BME280;34170;54.364;18.582;2022-11-06T00:01:37;100456.94;;;4.70;100.00
48364;BME280;34170;54.364;18.582;2022-11-06T00:04:04;100453.19;;;4.59;100.00
48364;BME280;34170;54.364;18.582;2022-11-06T00:06:32;100456.47;;;4.77;100.00
48364;BME280;34170;54.364;18.582;2022-11-06T00:09:17;100448.22;;;4.68;100.00
48364;BME280;34170;54.364;18.582;2022-11-06T00:11:46;100452.06;;;4.76;100.00
48364;BME280;34170;54.364;18.582;2022-11-06T00:14:15;100456.56;;;4.76;100.00
48364;BME280;34170;54.364;18.582;2022-11-06T00:16:44;100453.16;;;4.74;100.00
48364;BME280;34170;54.364;18.582;2022-11-06T00:19:12;100460.06;;;4.76;100.00
48364;BME280;34170;54.364;18.582;2022-11-06T00:21:39;100466.03;;;4.67;100.00
48364;BME280;34170;54.364;18.582;2022-11-06T00:24:08;100468.44;;;4.57;100.00
48364;BME280;34170;54.364;18.582;2022-11-06T00:26:36;100466.69;;;4.84;100.00
48364;BME280;34170;54.364;18.582;2022-11-06T00:29:05;100458.78;;;4.82;100.00
48364;BME280;34170;54.364;18.582;2022-11-06T00:31:34;100456.66;;;4.74;100.00
48364;BME280;34170;54.364;18.582;2022-11-06T00:34:04;100460.03;;;4.64;100.00
48364;BME280;34170;54.364;18.582;2022-11-06T00:36:34;100470.69;;;4.64;100.00
48364;BME280;34170;54.364;18.582;2022-11-06T00:39:02;100466.22;;;4.64;100.00
48364;BME280;34170;54.364;18.582;2022-11-06T00:41:29;100455.09;;;4.45;100.00
48364;BME280;34170;54.364;18.582;2022-11-06T00:43:59;100455.44;;;4.53;100.00
48364;BME280;34170;54.364;18.582;2022-11-06T00:46:27;100452.06;;;4.76;100.00
48364;BME280;34170;54.364;18.582;2022-11-06T00:48:55;100451.69;;;4.55;100.00
48364;BME280;34170;54.364;18.582;2022-11-06T00:51:30;100451.88;;;4.39;100.00
48364;BME280;34170;54.364;18.582;2022-11-06T00:54:00;100436.69;;;4.54;100.00
48364;BME280;34170;54.364;18.582;2022-11-06T00:56:29;100448.31;;;4.66;100.00
48364;BME280;34170;54.364;18.582;2022-11-06T00:59:02;100443.34;;;4.74;100.00
48364;BME280;34170;54.364;18.582;2022-11-06T01:01:32;100452.44;;;4.57;100.00
48364;BME280;34170;54.364;18.582;2022-11-06T01:04:09;100455.44;;;4.53;100.00
48364;BME280;34170;54.364;18.582;2022-11-06T01:06:39;100453.31;;;4.58;100.00
48364;BME280;34170;54.364;18.582;2022-11-06T01:09:08;100452.81;;;4.66;100.00
48364;BME280;34170;54.364;18.582;2022-11-06T01:11:38;100441.78;;;4.57;100.00
48364;BME280;34170;54.364;18.582;2022-11-06T01:14:26;100448.50;;;4.63;100.00
48364;BME280;34170;54.364;18.582;2022-11-06T01:16:54;100442.75;;;4.44;100.00
48364;BME280;34170;54.364;18.582;2022-11-06T01:19:22;100451.25;;;4.49;100.00
48364;BME280;34170;54.364;18.582;2022-11-06T01:21:51;100445.69;;;4.39;100.00
48364;BME280;34170;54.364;18.582;2022-11-06T01:24:23;100431.03;;;4.19;100.00
48364;BME280;34170;54.364;18.582;2022-11-06T01:26:50;100447.75;;;4.21;100.00
48364;BME280;34170;54.364;18.582;2022-11-06T01:29:38;100441.31;;;4.11;100.00
48364;BME280;34170;54.364;18.582;2022-11-06T01:32:05;100437.16;;;4.07;100.00
48364;BME280;34170;54.364;18.582;2022-11-06T01:34:33;100445.72;;;4.12;100.00
48364;BME280;34170;54.364;18.582;2022-11-06T01:37:00;100433.25;;;4.12;100.00
48364;BME280;34170;54.364;18.582;2022-11-06T01:39:27;100440.97;;;4.30;100.00
48364;BME280;34170;54.364;18.582;2022-11-06T01:41:55;100445.47;;;4.29;100.00
48364;BME280;34170;54.364;18.582;2022-11-06T01:47:00;100448.94;;;4.17;100.00
48364;BME280;34170;54.364;18.582;2022-11-06T01:49:33;100448.66;;;4.34;100.00
48364;BME280;34170;54.364;18.582;2022-11-06T01:52:06;100454.13;;;4.18;100.00
48364;BME280;34170;54.364;18.582;2022-11-06T01:54:38;100457.06;;;4.28;100.00
48364;BME280;34170;54.364;18.582;2022-11-06T01:57:06;100453.31;;;4.31;100.00
48364;BME280;34170;54.364;18.582;2022-11-06T01:59:38;100459.66;;;4.15;100.00
48364;BME280;34170;54.364;18.582;2022-11-06T02:02:07;100449.63;;;4.06;100.00
48364;BME280;34170;54.364;18.582;2022-11-06T02:04:41;100451.59;;;4.17;100.00
48364;BME280;34170;54.364;18.582;2022-11-06T02:07:09;100445.47;;;4.15;100.00
48364;BME280;34170;54.364;18.582;2022-11-06T02:09:38;100454.50;;;3.99;100.00
48364;BME280;34170;54.364;18.582;2022-11-06T02:14:47;100453.38;;;3.89;100.00
48364;BME280;34170;54.364;18.582;2022-11-06T02:20:01;100448.63;;;3.80;100.00
48364;BME280;34170;54.364;18.582;2022-11-06T02:22:39;100460.00;;;4.24;100.00
48364;BME280;34170;54.364;18.582;2022-11-06T02:25:29;100439.69;;;3.95;100.00
48364;BME280;34170;54.364;18.582;2022-11-06T02:28:05;100444.88;;;3.97;100.00
48364;BME280;34170;54.364;18.582;2022-11-06T02:30:40;100444.22;;;3.93;100.00
48364;BME280;34170;54.364;18.582;2022-11-06T02:33:13;100447.06;;;4.05;100.00
48364;BME280;34170;54.364;18.582;2022-11-06T02:35:46;100449.03;;;4.15;100.00
48364;BME280;34170;54.364;18.582;2022-11-06T02:38:26;100437.41;;;3.89;100.00
48364;BME280;34170;54.364;18.582;2022-11-06T02:40:56;100439.19;;;4.03;100.00
48364;BME280;34170;54.364;18.582;2022-11-06T02:43:31;100454.59;;;4.25;100.00
48364;BME280;34170;54.364;18.582;2022-11-06T02:46:06;100443.28;;;4.22;100.00
48364;BME280;34170;54.364;18.582;2022-11-06T02:48:42;100434.03;;;4.00;100.00
48364;BME280;34170;54.364;18.582;2022-11-06T02:51:14;100441.13;;;4.14;100.00
48364;BME280;34170;54.364;18.582;2022-11-06T02:53:45;100439.69;;;4.23;100.00
48364;BME280;34170;54.364;18.582;2022-11-06T02:56:17;100442.03;;;4.27;100.00
48364;BME280;34170;54.364;18.582;2022-11-06T02:58:56;100442.19;;;4.38;100.00
48364;BME280;34170;54.364;18.582;2022-11-06T03:01:29;100447.16;;;4.30;100.00
48364;BME280;34170;54.364;18.582;2022-11-06T03:04:03;100447.53;;;4.51;100.00
48364;BME280;34170;54.364;18.582;2022-11-06T03:06:39;100426.31;;;4.37;100.00
48364;BME280;34170;54.364;18.582;2022-11-06T03:09:14;100427.50;;;4.46;100.00
48364;BME280;34170;54.364;18.582;2022-11-06T03:11:53;100428.19;;;4.62;100.00
48364;BME280;34170;54.364;18.582;2022-11-06T03:14:30;100434.69;;;4.58;100.00
48364;BME280;34170;54.364;18.582;2022-11-06T03:17:11;100435.28;;;4.49;100.00
48364;BME280;34170;54.364;18.582;2022-11-06T03:22:39;100428.53;;;4.83;100.00
48364;BME280;34170;54.364;18.582;2022-11-06T03:25:19;100422.75;;;4.76;100.00
48364;BME280;34170;54.364;18.582;2022-11-06T03:28:32;100431.31;;;4.82;100.00
48364;BME280;34170;54.364;18.582;2022-11-06T03:31:02;100424.91;;;4.84;100.00
48364;BME280;34170;54.364;18.582;2022-11-06T03:33:40;100429.13;;;4.61;100.00
48364;BME280;34170;54.364;18.582;2022-11-06T03:36:17;100419.75;;;4.68;100.00
48364;BME280;34170;54.364;18.582;2022-11-06T03:38:49;100430.41;;;4.68;100.00
48364;BME280;34170;54.364;18.582;2022-11-06T03:41:23;100428.38;;;4.59;100.00
48364;BME280;34170;54.364;18.582;2022-11-06T03:43:55;100438.09;;;4.60;100.00
48364;BME280;34170;54.364;18.582;2022-11-06T03:46:25;100439.16;;;4.70;100.00
48364;BME280;34170;54.364;18.582;2022-11-06T03:48:59;100426.97;;;4.41;100.00
48364;BME280;34170;54.364;18.582;2022-11-06T03:51:40;100443.16;;;4.50;100.00
48364;BME280;34170;54.364;18.582;2022-11-06T03:54:16;100435.56;;;4.31;100.00
48364;BME280;34170;54.364;18.582;2022-11-06T03:59:22;100444.97;;;4.50;100.00
48364;BME280;34170;54.364;18.582;2022-11-06T04:01:54;100445.03;;;4.35;100.00
48364;BME280;34170;54.364;18.582;2022-11-06T04:04:29;100431.66;;;4.10;100.00
48364;BME280;34170;54.364;18.582;2022-11-06T04:07:12;100443.75;;;4.28;100.00
48364;BME280;34170;54.364;18.582;2022-11-06T04:09:45;100439.59;;;4.24;100.00
48364;BME280;34170;54.364;18.582;2022-11-06T04:12:34;100440.63;;;4.22;100.00
48364;BME280;34170;54.364;18.582;2022-11-06T04:15:33;100431.84;;;4.07;100.00
48364;BME280;34170;54.364;18.582;2022-11-06T04:18:02;100431.19;;;4.30;100.00
48364;BME280;34170;54.364;18.582;2022-11-06T04:20:48;100432.41;;;4.12;100.00
48364;BME280;34170;54.364;18.582;2022-11-06T04:30:00;100429.06;;;4.35;100.00
48364;BME280;34170;54.364;18.582;2022-11-06T04:43:07;100412.00;;;4.25;100.00
48364;BME280;34170;54.364;18.582;2022-11-06T04:45:39;100412.97;;;4.24;100.00
48364;BME280;34170;54.364;18.582;2022-11-06T04:48:08;100423.38;;;4.27;100.00
48364;BME280;34170;54.364;18.582;2022-11-06T04:50:42;100429.03;;;4.23;100.00
48364;BME280;34170;54.364;18.582;2022-11-06T04:53:11;100427.13;;;4.25;100.00
48364;BME280;34170;54.364;18.582;2022-11-06T04:55:53;100401.81;;;4.05;100.00
48364;BME280;34170;54.364;18.582;2022-11-06T04:58:21;100414.56;;;3.99;100.00
48364;BME280;34170;54.364;18.582;2022-11-06T05:00:49;100414.91;;;4.08;100.00
48364;BME280;34170;54.364;18.582;2022-11-06T05:03:17;100415.50;;;3.98;100.00
48364;BME280;34170;54.364;18.582;2022-11-06T05:05:44;100421.84;;;3.83;100.00
48364;BME280;34170;54.364;18.582;2022-11-06T05:08:17;100425.44;;;3.82;100.00
48364;BME280;34170;54.364;18.582;2022-11-06T05:10:44;100420.66;;;4.01;100.00
48364;BME280;34170;54.364;18.582;2022-11-06T05:13:13;100411.00;;;3.72;100.00
48364;BME280;34170;54.364;18.582;2022-11-06T05:15:41;100420.88;;;3.84;100.00
48364;BME280;34170;54.364;18.582;2022-11-06T05:18:08;100426.47;;;3.94;100.00
48364;BME280;34170;54.364;18.582;2022-11-06T05:20:36;100422.50;;;3.87;100.00
48364;BME280;34170;54.364;18.582;2022-11-06T05:23:04;100434.78;;;3.75;100.00
48364;BME280;34170;54.364;18.582;2022-11-06T05:25:34;100426.31;;;3.68;100.00
48364;BME280;34170;54.364;18.582;2022-11-06T05:28:03;100430.50;;;3.72;100.00
48364;BME280;34170;54.364;18.582;2022-11-06T05:30:35;100429.47;;;3.60;100.00
48364;BME280;34170;54.364;18.582;2022-11-06T05:33:02;100439.94;;;3.63;100.00
48364;BME280;34170;54.364;18.582;2022-11-06T05:35:30;100442.50;;;3.65;100.00
48364;BME280;34170;54.364;18.582;2022-11-06T05:38:01;100451.13;;;3.69;100.00
48364;BME280;34170;54.364;18.582;2022-11-06T05:40:29;100453.50;;;3.59;100.00
48364;BME280;34170;54.364;18.582;2022-11-06T05:42:57;100457.19;;;3.71;100.00
48364;BME280;34170;54.364;18.582;2022-11-06T05:45:24;100442.09;;;3.57;100.00
48364;BME280;34170;54.364;18.582;2022-11-06T05:47:51;100449.59;;;3.65;100.00
48364;BME280;34170;54.364;18.582;2022-11-06T05:50:19;100453.97;;;3.66;100.00
48364;BME280;34170;54.364;18.582;2022-11-06T05:52:46;100440.59;;;3.53;100.00
48364;BME280;34170;54.364;18.582;2022-11-06T05:55:13;100440.50;;;3.54;100.00
48364;BME280;34170;54.364;18.582;2022-11-06T05:57:42;100446.94;;;3.50;100.00
48364;BME280;34170;54.364;18.582;2022-11-06T06:00:10;100455.16;;;3.47;100.00
48364;BME280;34170;54.364;18.582;2022-11-06T06:02:42;100454.00;;;3.37;100.00
48364;BME280;34170;54.364;18.582;2022-11-06T06:05:10;100457.50;;;3.37;100.00
48364;BME280;34170;54.364;18.582;2022-11-06T06:07:37;100448.19;;;3.30;100.00
48364;BME280;34170;54.364;18.582;2022-11-06T06:10:05;100456.66;;;3.51;100.00
48364;BME280;34170;54.364;18.582;2022-11-06T06:12:32;100462.97;;;3.63;100.00
48364;BME280;34170;54.364;18.582;2022-11-06T06:15:00;100463.78;;;3.51;100.00
48364;BME280;34170;54.364;18.582;2022-11-06T06:17:27;100467.47;;;3.62;100.00
48364;BME280;34170;54.364;18.582;2022-11-06T06:19:54;100455.66;;;3.67;100.00
48364;BME280;34170;54.364;18.582;2022-11-06T06:22:22;100461.00;;;3.81;100.00
48364;BME280;34170;54.364;18.582;2022-11-06T06:24:49;100468.72;;;3.98;100.00
48364;BME280;34170;54.364;18.582;2022-11-06T06:27:17;100474.34;;;4.08;100.00
48364;BME280;34170;54.364;18.582;2022-11-06T06:29:44;100465.28;;;4.11;100.00
48364;BME280;34170;54.364;18.582;2022-11-06T06:32:11;100456.53;;;4.09;100.00
48364;BME280;34170;54.364;18.582;2022-11-06T06:34:38;100460.66;;;4.27;100.00
48364;BME280;34170;54.364;18.582;2022-11-06T06:37:07;100470.44;;;4.54;100.00
48364;BME280;34170;54.364;18.582;2022-11-06T06:39:34;100477.22;;;4.72;100.00
48364;BME280;34170;54.364;18.582;2022-11-06T06:42:02;100478.63;;;4.91;100.00
48364;BME280;34170;54.364;18.582;2022-11-06T06:44:30;100471.84;;;5.12;100.00
48364;BME280;34170;54.364;18.582;2022-11-06T06:46:57;100469.72;;;5.30;100.00
48364;BME280;34170;54.364;18.582;2022-11-06T06:49:25;100460.81;;;5.56;100.00
48364;BME280;34170;54.364;18.582;2022-11-06T06:51:52;100468.13;;;5.90;100.00
48364;BME280;34170;54.364;18.582;2022-11-06T06:54:19;100463.59;;;6.17;100.00
48364;BME280;34170;54.364;18.582;2022-11-06T06:56:47;100464.00;;;6.83;100.00
48364;BME280;34170;54.364;18.582;2022-11-06T06:59:14;100465.44;;;7.34;100.00
48364;BME280;34170;54.364;18.582;2022-11-06T07:01:41;100473.81;;;7.97;100.00
48364;BME280;34170;54.364;18.582;2022-11-06T07:04:09;100481.41;;;8.47;100.00
48364;BME280;34170;54.364;18.582;2022-11-06T07:06:37;100487.13;;;8.53;100.00
48364;BME280;34170;54.364;18.582;2022-11-06T07:09:04;100487.59;;;8.04;100.00
48364;BME280;34170;54.364;18.582;2022-11-06T07:11:31;100488.81;;;7.32;100.00
48364;BME280;34170;54.364;18.582;2022-11-06T07:13:58;100483.41;;;6.74;100.00
48364;BME280;34170;54.364;18.582;2022-11-06T07:16:27;100490.66;;;6.60;100.00
48364;BME280;34170;54.364;18.582;2022-11-06T07:18:55;100484.00;;;6.42;100.00
48364;BME280;34170;54.364;18.582;2022-11-06T07:21:23;100492.53;;;7.06;100.00
48364;BME280;34170;54.364;18.582;2022-11-06T07:23:51;100497.88;;;8.31;100.00
48364;BME280;34170;54.364;18.582;2022-11-06T07:26:18;100491.69;;;9.37;100.00
48364;BME280;34170;54.364;18.582;2022-11-06T07:28:45;100505.44;;;10.95;99.50
48364;BME280;34170;54.364;18.582;2022-11-06T07:31:13;100503.22;;;11.94;83.46
48364;BME280;34170;54.364;18.582;2022-11-06T07:33:40;100493.34;;;11.38;84.69
48364;BME280;34170;54.364;18.582;2022-11-06T07:36:11;100512.78;;;12.16;79.33
48364;BME280;34170;54.364;18.582;2022-11-06T07:38:40;100502.16;;;11.01;85.65
48364;BME280;34170;54.364;18.582;2022-11-06T07:41:13;100504.59;;;12.54;74.77
48364;BME280;34170;54.364;18.582;2022-11-06T07:43:41;100514.31;;;14.05;70.01
48364;BME280;34170;54.364;18.582;2022-11-06T07:46:11;100504.91;;;14.93;58.92
48364;BME280;34170;54.364;18.582;2022-11-06T07:48:38;100512.72;;;15.21;58.09
48364;BME280;34170;54.364;18.582;2022-11-06T07:51:08;100513.34;;;15.64;53.51
48364;BME280;34170;54.364;18.582;2022-11-06T07:53:37;100507.34;;;16.01;53.97
48364;BME280;34170;54.364;18.582;2022-11-06T07:56:05;100510.16;;;16.48;51.72
48364;BME280;34170;54.364;18.582;2022-11-06T07:58:33;100510.75;;;16.35;50.26
48364;BME280;34170;54.364;18.582;2022-11-06T08:01:00;100508.66;;;17.38;49.22
48364;BME280;34170;54.364;18.582;2022-11-06T08:03:28;100506.81;;;17.15;47.65
48364;BME280;34170;54.364;18.582;2022-11-06T08:05:57;100501.84;;;16.49;48.87
48364;BME280;34170;54.364;18.582;2022-11-06T08:08:26;100512.25;;;16.37;50.51
48364;BME280;34170;54.364;18.582;2022-11-06T08:10:54;100514.09;;;17.38;47.88
48364;BME280;34170;54.364;18.582;2022-11-06T08:13:21;100520.97;;;17.63;46.63
48364;BME280;34170;54.364;18.582;2022-11-06T08:15:49;100518.84;;;17.21;47.88
48364;BME280;34170;54.364;18.582;2022-11-06T08:18:16;100520.38;;;18.21;46.78
48364;BME280;34170;54.364;18.582;2022-11-06T08:20:44;100517.19;;;17.34;46.17
48364;BME280;34170;54.364;18.582;2022-11-06T08:23:12;100515.63;;;17.55;47.55
48364;BME280;34170;54.364;18.582;2022-11-06T08:25:40;100517.06;;;17.51;47.06
48364;BME280;34170;54.364;18.582;2022-11-06T08:28:07;100516.75;;;17.46;47.04
48364;BME280;34170;54.364;18.582;2022-11-06T08:30:35;100517.13;;;17.58;46.61
48364;BME280;34170;54.364;18.582;2022-11-06T08:33:05;100515.09;;;18.34;44.69
48364;BME280;34170;54.364;18.582;2022-11-06T08:35:33;100514.41;;;18.83;44.01
48364;BME280;34170;54.364;18.582;2022-11-06T08:38:00;100514.50;;;18.75;43.90
48364;BME280;34170;54.364;18.582;2022-11-06T08:40:29;100510.78;;;19.19;41.52
48364;BME280;34170;54.364;18.582;2022-11-06T08:43:01;100515.84;;;19.51;42.01
48364;BME280;34170;54.364;18.582;2022-11-06T08:45:30;100518.50;;;18.58;43.89
48364;BME280;34170;54.364;18.582;2022-11-06T08:48:01;100520.47;;;17.98;44.32
48364;BME280;34170;54.364;18.582;2022-11-06T08:50:30;100519.38;;;17.92;44.54
48364;BME280;34170;54.364;18.582;2022-11-06T08:52:59;100519.78;;;17.81;44.73
48364;BME280;34170;54.364;18.582;2022-11-06T08:55:38;100517.06;;;17.81;44.73
48364;BME280;34170;54.364;18.582;2022-11-06T08:58:06;100523.91;;;18.36;43.33
48364;BME280;34170;54.364;18.582;2022-11-06T09:00:34;100519.72;;;18.55;43.83
48364;BME280;34170;54.364;18.582;2022-11-06T09:03:06;100518.31;;;19.46;42.45
48364;BME280;34170;54.364;18.582;2022-11-06T09:05:38;100512.81;;;19.39;40.41
48364;BME280;34170;54.364;18.582;2022-11-06T09:08:07;100502.63;;;17.95;42.92
48364;BME280;34170;54.364;18.582;2022-11-06T09:10:36;100508.19;;;18.02;43.20
48364;BME280;34170;54.364;18.582;2022-11-06T09:13:04;100510.28;;;17.47;45.46
48364;BME280;34170;54.364;18.582;2022-11-06T09:15:33;100509.16;;;17.03;46.71
48364;BME280;34170;54.364;18.582;2022-11-06T09:18:00;100522.94;;;16.93;46.68
48364;BME280;34170;54.364;18.582;2022-11-06T09:20:28;100516.13;;;17.73;44.77
48364;BME280;34170;54.364;18.582;2022-11-06T09:22:59;100510.72;;;18.03;43.57
48364;BME280;34170;54.364;18.582;2022-11-06T09:25:27;100516.47;;;17.70;43.55
48364;BME280;34170;54.364;18.582;2022-11-06T09:27:55;100509.53;;;16.69;46.69
48364;BME280;34170;54.364;18.582;2022-11-06T09:30:28;100502.91;;;18.00;42.94
48364;BME280;34170;54.364;18.582;2022-11-06T09:32:59;100497.13;;;15.48;46.82
48364;BME280;34170;54.364;18.582;2022-11-06T09:35:30;100489.53;;;16.38;47.24
48364;BME280;34170;54.364;18.582;2022-11-06T09:38:01;100498.63;;;16.14;47.52
48364;BME280;34170;54.364;18.582;2022-11-06T09:40:32;100493.19;;;16.23;50.73
48364;BME280;34170;54.364;18.582;2022-11-06T09:46:50;100483.16;;;16.77;46.55
48364;BME280;34170;54.364;18.582;2022-11-06T09:55:14;100465.34;;;15.89;49.80
48364;BME280;34170;54.364;18.582;2022-11-06T09:57:47;100473.25;;;15.18;51.26
48364;BME280;34170;54.364;18.582;2022-11-06T10:00:17;100455.69;;;14.90;52.77
48364;BME280;34170;54.364;18.582;2022-11-06T10:02:54;100463.25;;;15.43;49.73
48364;BME280;34170;54.364;18.582;2022-11-06T10:05:28;100452.13;;;14.89;53.15
48364;BME280;34170;54.364;18.582;2022-11-06T10:08:04;100464.63;;;15.31;51.70
48364;BME280;34170;54.364;18.582;2022-11-06T10:11:05;100465.56;;;15.63;49.77
48364;BME280;34170;54.364;18.582;2022-11-06T10:16:56;100457.41;;;13.38;58.48
48364;BME280;34170;54.364;18.582;2022-11-06T10:30:16;100441.72;;;14.19;56.94
48364;BME280;34170;54.364;18.582;2022-11-06T10:35:51;100449.72;;;15.43;53.72
48364;BME280;34170;54.364;18.582;2022-11-06T10:38:29;100442.66;;;14.77;55.53
48364;BME280;34170;54.364;18.582;2022-11-06T10:41:00;100448.28;;;15.64;52.66
48364;BME280;34170;54.364;18.582;2022-11-06T10:43:34;100449.00;;;16.37;50.07
48364;BME280;34170;54.364;18.582;2022-11-06T10:48:42;100455.53;;;16.51;50.19
48364;BME280;34170;54.364;18.582;2022-11-06T10:51:27;100439.53;;;14.22;57.76
48364;BME280;34170;54.364;18.582;2022-11-06T10:54:12;100432.03;;;15.56;53.53
48364;BME280;34170;54.364;18.582;2022-11-06T10:57:17;100430.03;;;15.41;53.00
48364;BME280;34170;54.364;18.582;2022-11-06T10:59:47;100426.94;;;14.72;54.88
48364;BME280;34170;54.364;18.582;2022-11-06T11:02:33;100420.88;;;14.11;57.24
48364;BME280;34170;54.364;18.582;2022-11-06T11:05:10;100418.97;;;12.56;62.59
48364;BME280;34170;54.364;18.582;2022-11-06T11:07:40;100407.13;;;11.75;69.55
48364;BME280;34170;54.364;18.582;2022-11-06T11:12:53;100406.91;;;10.84;78.14
48364;BME280;34170;54.364;18.582;2022-11-06T11:15:22;100403.91;;;10.67;81.62
48364;BME280;34170;54.364;18.582;2022-11-06T11:18:26;100397.00;;;10.45;83.12
48364;BME280;34170;54.364;18.582;2022-11-06T11:21:06;100392.78;;;10.43;83.14
48364;BME280;34170;54.364;18.582;2022-11-06T11:23:33;100391.19;;;10.60;84.84
48364;BME280;34170;54.364;18.582;2022-11-06T11:26:26;100383.34;;;9.88;83.81
48364;BME280;34170;54.364;18.582;2022-11-06T11:29:00;100386.75;;;10.10;84.83
48364;BME280;34170;54.364;18.582;2022-11-06T11:31:34;100394.41;;;10.24;84.07
48364;BME280;34170;54.364;18.582;2022-11-06T11:34:05;100379.97;;;10.16;86.24
48364;BME280;34170;54.364;18.582;2022-11-06T11:36:53;100374.34;;;10.28;89.70
48364;BME280;34170;54.364;18.582;2022-11-06T11:39:26;100379.56;;;10.10;86.49
48364;BME280;34170;54.364;18.582;2022-11-06T11:42:15;100371.78;;;10.17;87.84
48364;BME280;34170;54.364;18.582;2022-11-06T11:44:43;100376.03;;;10.20;86.89
48364;BME280;34170;54.364;18.582;2022-11-06T11:47:23;100371.38;;;10.22;87.65
48364;BME280;34170;54.364;18.582;2022-11-06T11:49:50;100363.44;;;10.20;85.69
48364;BME280;34170;54.364;18.582;2022-11-06T11:52:19;100366.84;;;10.13;88.59
48364;BME280;34170;54.364;18.582;2022-11-06T11:54:52;100363.16;;;10.23;85.24
48364;BME280;34170;54.364;18.582;2022-11-06T11:57:23;100369.22;;;10.16;86.91
48364;BME280;34170;54.364;18.582;2022-11-06T11:59:55;100360.75;;;10.30;89.92
48364;BME280;34170;54.364;18.582;2022-11-06T12:02:50;100364.13;;;10.03;87.11
48364;BME280;34170;54.364;18.582;2022-11-06T12:05:27;100352.97;;;9.88;85.04
48364;BME280;34170;54.364;18.582;2022-11-06T12:07:58;100365.28;;;10.00;85.05
48364;BME280;34170;54.364;18.582;2022-11-06T12:13:22;100355.38;;;10.10;84.86
48364;BME280;34170;54.364;18.582;2022-11-06T12:16:15;100366.28;;;10.19;86.69
48364;BME280;34170;54.364;18.582;2022-11-06T12:18:47;100349.16;;;10.20;85.69
48364;BME280;34170;54.364;18.582;2022-11-06T12:21:32;100350.97;;;10.19;83.72
48364;BME280;34170;54.364;18.582;2022-11-06T12:24:06;100357.66;;;10.25;85.20
48364;BME280;34170;54.364;18.582;2022-11-06T12:29:24;100349.44;;;10.07;83.10
48364;BME280;34170;54.364;18.582;2022-11-06T12:40:31;100341.66;;;10.14;85.38
48364;BME280;34170;54.364;18.582;2022-11-06T12:48:28;100340.66;;;10.05;87.51
48364;BME280;34170;54.364;18.582;2022-11-06T12:51:05;100342.06;;;9.99;87.61
48364;BME280;34170;54.364;18.582;2022-11-06T12:53:46;100328.78;;;10.07;88.89
48364;BME280;34170;54.364;18.582;2022-11-06T12:56:37;100318.59;;;9.91;89.65
48364;BME280;34170;54.364;18.582;2022-11-06T13:07:37;100338.69;;;9.97;91.03
48364;BME280;34170;54.364;18.582;2022-11-06T13:10:28;100346.88;;;9.96;92.01
48364;BME280;34170;54.364;18.582;2022-11-06T13:13:00;100336.44;;;10.02;92.06
48364;BME280;34170;54.364;18.582;2022-11-06T13:18:34;100335.84;;;9.89;93.78
48364;BME280;34170;54.364;18.582;2022-11-06T13:23:48;100324.69;;;9.84;93.30
48364;BME280;34170;54.364;18.582;2022-11-06T13:26:27;100317.34;;;9.86;95.85
48364;BME280;34170;54.364;18.582;2022-11-06T13:28:59;100319.00;;;9.87;94.84
48364;BME280;34170;54.364;18.582;2022-11-06T13:31:39;100315.16;;;9.60;95.86
48364;BME280;34170;54.364;18.582;2022-11-06T13:34:24;100311.22;;;9.64;94.74
48364;BME280;34170;54.364;18.582;2022-11-06T13:36:53;100312.91;;;9.65;95.72
48364;BME280;34170;54.364;18.582;2022-11-06T13:39:33;100305.25;;;9.51;98.05
48364;BME280;34170;54.364;18.582;2022-11-06T13:42:24;100314.00;;;9.53;99.72
48364;BME280;34170;54.364;18.582;2022-11-06T13:44:53;100319.13;;;9.56;99.69
48364;BME280;34170;54.364;18.582;2022-11-06T13:47:47;100307.41;;;9.57;100.00
48364;BME280;34170;54.364;18.582;2022-11-06T13:50:56;100318.91;;;9.28;100.00
48364;BME280;34170;54.364;18.582;2022-11-06T13:53:48;100321.81;;;9.15;100.00
48364;BME280;34170;54.364;18.582;2022-11-06T14:02:24;100320.34;;;9.02;100.00
48364;BME280;34170;54.364;18.582;2022-11-06T14:07:41;100312.88;;;9.05;100.00
48364;BME280;34170;54.364;18.582;2022-11-06T14:10:24;100318.84;;;9.09;100.00
48364;BME280;34170;54.364;18.582;2022-11-06T14:12:55;100308.63;;;9.03;100.00
48364;BME280;34170;54.364;18.582;2022-11-06T14:15:37;100310.06;;;9.07;100.00
48364;BME280;34170;54.364;18.582;2022-11-06T14:18:05;100314.28;;;9.00;100.00
48364;BME280;34170;54.364;18.582;2022-11-06T14:20:34;100329.94;;;8.94;100.00
48364;BME280;34170;54.364;18.582;2022-11-06T14:25:59;100323.28;;;8.68;100.00
48364;BME280;34170;54.364;18.582;2022-11-06T14:28:50;100320.66;;;8.56;100.00
48364;BME280;34170;54.364;18.582;2022-11-06T14:34:27;100319.28;;;8.41;100.00
48364;BME280;34170;54.364;18.582;2022-11-06T14:36:55;100307.88;;;8.28;100.00
48364;BME280;34170;54.364;18.582;2022-11-06T14:42:28;100309.84;;;8.26;100.00
48364;BME280;34170;54.364;18.582;2022-11-06T14:50:23;100324.75;;;8.18;100.00
48364;BME280;34170;54.364;18.582;2022-11-06T14:53:02;100327.25;;;7.99;100.00
48364;BME280;34170;54.364;18.582;2022-11-06T14:55:35;100327.25;;;7.99;100.00
48364;BME280;34170;54.364;18.582;2022-11-06T14:58:24;100323.84;;;7.97;100.00
48364;BME280;34170;54.364;18.582;2022-11-06T15:03:54;100329.56;;;8.04;100.00
48364;BME280;34170;54.364;18.582;2022-11-06T15:06:33;100329.22;;;7.97;100.00
48364;BME280;34170;54.364;18.582;2022-11-06T15:16:41;100307.53;;;7.68;100.00
48364;BME280;34170;54.364;18.582;2022-11-06T15:21:45;100310.81;;;7.71;100.00